sensor_id;sensor_type;location;lat;lon;timestamp;P1;durP1;ratioP1;P2;durP2;ratioP2
64395;SDS011;50717;53.360;6.290;2022-08-21T00:03:50;13.70;;;7.30;;
64395;SDS011;50717;53.360;6.290;2022-08-21T00:06:16;13.88;;;7.25;;
64395;SDS011;50717;53.360;6.290;2022-08-21T00:11:08;15.20;;;7.15;;
64395;SDS011;50717;53.360;6.290;2022-08-21T00:16:00;14.00;;;7.18;;
64395;SDS011;50717;53.360;6.290;2022-08-21T00:18:26;14.40;;;7.18;;
64395;SDS011;50717;53.360;6.290;2022-08-21T00:23:18;15.45;;;7.03;;
64395;SDS011;50717;53.360;6.290;2022-08-21T00:28:10;14.73;;;8.02;;
64395;SDS011;50717;53.360;6.290;2022-08-21T00:30:37;13.75;;;7.45;;
64395;SDS011;50717;53.360;6.290;2022-08-21T00:33:04;17.95;;;8.20;;
64395;SDS011;50717;53.360;6.290;2022-08-21T00:35:33;18.02;;;7.15;;
64395;SDS011;50717;53.360;6.290;2022-08-21T00:38:01;13.27;;;7.20;;
64395;SDS011;50717;53.360;6.290;2022-08-21T00:40:29;13.25;;;6.70;;
64395;SDS011;50717;53.360;6.290;2022-08-21T00:42:58;15.95;;;7.07;;
64395;SDS011;50717;53.360;6.290;2022-08-21T00:47:50;13.60;;;7.60;;
64395;SDS011;50717;53.360;6.290;2022-08-21T00:50:17;10.80;;;7.25;;
64395;SDS011;50717;53.360;6.290;2022-08-21T00:52:43;10.60;;;6.82;;
64395;SDS011;50717;53.360;6.290;2022-08-21T00:55:10;12.85;;;7.15;;
64395;SDS011;50717;53.360;6.290;2022-08-21T00:57:41;13.55;;;7.05;;
64395;SDS011;50717;53.360;6.290;2022-08-21T01:00:13;14.27;;;6.88;;
64395;SDS011;50717;53.360;6.290;2022-08-21T01:02:41;17.30;;;7.25;;
64395;SDS011;50717;53.360;6.290;2022-08-21T01:07:33;13.90;;;7.30;;
64395;SDS011;50717;53.360;6.290;2022-08-21T01:12:25;15.32;;;7.47;;
64395;SDS011;50717;53.360;6.290;2022-08-21T01:17:17;12.38;;;7.20;;
64395;SDS011;50717;53.360;6.290;2022-08-21T01:19:44;13.38;;;7.70;;
64395;SDS011;50717;53.360;6.290;2022-08-21T01:22:10;13.18;;;7.78;;
64395;SDS011;50717;53.360;6.290;2022-08-21T01:27:01;16.85;;;8.70;;
64395;SDS011;50717;53.360;6.290;2022-08-21T01:32:32;16.80;;;8.32;;
64395;SDS011;50717;53.360;6.290;2022-08-21T01:34:58;14.57;;;8.68;;
64395;SDS011;50717;53.360;6.290;2022-08-21T01:37:24;13.43;;;8.23;;
64395;SDS011;50717;53.360;6.290;2022-08-21T01:42:16;14.63;;;8.13;;
64395;SDS011;50717;53.360;6.290;2022-08-21T01:47:08;16.90;;;8.43;;
64395;SDS011;50717;53.360;6.290;2022-08-21T01:49:36;14.45;;;8.55;;
64395;SDS011;50717;53.360;6.290;2022-08-21T01:52:03;16.05;;;8.75;;
64395;SDS011;50717;53.360;6.290;2022-08-21T01:54:30;15.07;;;8.75;;
64395;SDS011;50717;53.360;6.290;2022-08-21T01:56:56;14.90;;;9.43;;
64395;SDS011;50717;53.360;6.290;2022-08-21T01:59:23;13.93;;;8.55;;
64395;SDS011;50717;53.360;6.290;2022-08-21T02:01:49;21.02;;;9.30;;
64395;SDS011;50717;53.360;6.290;2022-08-21T02:04:16;16.98;;;9.02;;
64395;SDS011;50717;53.360;6.290;2022-08-21T02:06:42;16.35;;;9.13;;
64395;SDS011;50717;53.360;6.290;2022-08-21T02:09:09;16.38;;;9.60;;
64395;SDS011;50717;53.360;6.290;2022-08-21T02:11:36;23.08;;;11.23;;
64395;SDS011;50717;53.360;6.290;2022-08-21T02:14:05;13.23;;;9.55;;
64395;SDS011;50717;53.360;6.290;2022-08-21T02:16:32;15.23;;;9.65;;
64395;SDS011;50717;53.360;6.290;2022-08-21T02:18:58;20.00;;;9.70;;
64395;SDS011;50717;53.360;6.290;2022-08-21T02:21:24;15.98;;;9.35;;
64395;SDS011;50717;53.360;6.290;2022-08-21T02:23:50;14.30;;;9.50;;
64395;SDS011;50717;53.360;6.290;2022-08-21T02:26:16;15.55;;;9.23;;
64395;SDS011;50717;53.360;6.290;2022-08-21T02:28:42;14.68;;;9.32;;
64395;SDS011;50717;53.360;6.290;2022-08-21T02:33:33;19.60;;;9.15;;
64395;SDS011;50717;53.360;6.290;2022-08-21T02:35:59;18.15;;;9.82;;
64395;SDS011;50717;53.360;6.290;2022-08-21T02:38:28;21.58;;;10.40;;
64395;SDS011;50717;53.360;6.290;2022-08-21T02:40:56;13.77;;;9.35;;
64395;SDS011;50717;53.360;6.290;2022-08-21T02:43:23;21.00;;;10.52;;
64395;SDS011;50717;53.360;6.290;2022-08-21T02:45:51;18.70;;;10.52;;
64395;SDS011;50717;53.360;6.290;2022-08-21T02:48:18;19.77;;;9.82;;
64395;SDS011;50717;53.360;6.290;2022-08-21T02:50:57;16.63;;;9.98;;
64395;SDS011;50717;53.360;6.290;2022-08-21T02:53:31;17.98;;;10.50;;
64395;SDS011;50717;53.360;6.290;2022-08-21T02:55:58;21.08;;;10.93;;
64395;SDS011;50717;53.360;6.290;2022-08-21T02:58:27;22.27;;;10.52;;
64395;SDS011;50717;53.360;6.290;2022-08-21T03:00:56;13.80;;;9.95;;
64395;SDS011;50717;53.360;6.290;2022-08-21T03:03:23;20.05;;;10.15;;
64395;SDS011;50717;53.360;6.290;2022-08-21T03:05:49;20.35;;;10.57;;
64395;SDS011;50717;53.360;6.290;2022-08-21T03:08:16;15.23;;;10.48;;
64395;SDS011;50717;53.360;6.290;2022-08-21T03:10:45;20.48;;;10.25;;
64395;SDS011;50717;53.360;6.290;2022-08-21T03:13:12;17.60;;;11.20;;
64395;SDS011;50717;53.360;6.290;2022-08-21T03:15:39;21.80;;;11.05;;
64395;SDS011;50717;53.360;6.290;2022-08-21T03:18:05;16.42;;;11.25;;
64395;SDS011;50717;53.360;6.290;2022-08-21T03:20:32;14.90;;;10.43;;
64395;SDS011;50717;53.360;6.290;2022-08-21T03:22:59;23.08;;;11.80;;
64395;SDS011;50717;53.360;6.290;2022-08-21T03:25:26;18.95;;;11.27;;
64395;SDS011;50717;53.360;6.290;2022-08-21T03:27:53;22.02;;;11.95;;
64395;SDS011;50717;53.360;6.290;2022-08-21T03:30:19;22.40;;;12.30;;
64395;SDS011;50717;53.360;6.290;2022-08-21T03:32:47;15.35;;;10.68;;
64395;SDS011;50717;53.360;6.290;2022-08-21T03:37:39;19.65;;;10.77;;
64395;SDS011;50717;53.360;6.290;2022-08-21T03:40:06;21.30;;;11.70;;
64395;SDS011;50717;53.360;6.290;2022-08-21T03:42:33;17.92;;;11.10;;
64395;SDS011;50717;53.360;6.290;2022-08-21T03:47:25;19.60;;;11.43;;
64395;SDS011;50717;53.360;6.290;2022-08-21T03:49:51;25.27;;;11.57;;
64395;SDS011;50717;53.360;6.290;2022-08-21T03:52:17;20.00;;;10.80;;
64395;SDS011;50717;53.360;6.290;2022-08-21T03:57:09;23.50;;;11.97;;
64395;SDS011;50717;53.360;6.290;2022-08-21T04:02:02;19.05;;;11.55;;
64395;SDS011;50717;53.360;6.290;2022-08-21T04:04:29;19.63;;;11.77;;
64395;SDS011;50717;53.360;6.290;2022-08-21T04:09:22;23.00;;;11.38;;
64395;SDS011;50717;53.360;6.290;2022-08-21T04:11:48;19.30;;;10.60;;
64395;SDS011;50717;53.360;6.290;2022-08-21T04:14:14;19.92;;;11.13;;
64395;SDS011;50717;53.360;6.290;2022-08-21T04:16:41;15.95;;;10.98;;
64395;SDS011;50717;53.360;6.290;2022-08-21T04:19:07;20.95;;;11.20;;
64395;SDS011;50717;53.360;6.290;2022-08-21T04:21:34;21.42;;;10.52;;
64395;SDS011;50717;53.360;6.290;2022-08-21T04:24:02;17.67;;;10.75;;
64395;SDS011;50717;53.360;6.290;2022-08-21T04:26:29;17.23;;;10.82;;
64395;SDS011;50717;53.360;6.290;2022-08-21T04:28:56;17.17;;;10.30;;
64395;SDS011;50717;53.360;6.290;2022-08-21T04:31:23;19.23;;;10.85;;
64395;SDS011;50717;53.360;6.290;2022-08-21T04:33:49;17.38;;;10.70;;
64395;SDS011;50717;53.360;6.290;2022-08-21T04:38:41;19.98;;;10.55;;
64395;SDS011;50717;53.360;6.290;2022-08-21T04:41:07;19.00;;;10.38;;
64395;SDS011;50717;53.360;6.290;2022-08-21T04:43:33;16.05;;;10.05;;
64395;SDS011;50717;53.360;6.290;2022-08-21T04:48:25;17.02;;;10.50;;
64395;SDS011;50717;53.360;6.290;2022-08-21T04:50:53;18.90;;;10.23;;
64395;SDS011;50717;53.360;6.290;2022-08-21T04:53:24;16.77;;;10.23;;
64395;SDS011;50717;53.360;6.290;2022-08-21T04:55:50;20.38;;;9.95;;
64395;SDS011;50717;53.360;6.290;2022-08-21T04:58:20;17.77;;;10.57;;
64395;SDS011;50717;53.360;6.290;2022-08-21T05:00:47;24.00;;;10.70;;
64395;SDS011;50717;53.360;6.290;2022-08-21T05:03:13;26.60;;;11.75;;
64395;SDS011;50717;53.360;6.290;2022-08-21T05:05:41;19.30;;;10.93;;
64395;SDS011;50717;53.360;6.290;2022-08-21T05:08:08;17.88;;;10.68;;
64395;SDS011;50717;53.360;6.290;2022-08-21T05:10:37;17.63;;;10.15;;
64395;SDS011;50717;53.360;6.290;2022-08-21T05:13:03;17.23;;;10.35;;
64395;SDS011;50717;53.360;6.290;2022-08-21T05:15:31;21.23;;;10.90;;
64395;SDS011;50717;53.360;6.290;2022-08-21T05:17:56;12.40;;;9.45;;
64395;SDS011;50717;53.360;6.290;2022-08-21T05:20:22;16.77;;;9.95;;
64395;SDS011;50717;53.360;6.290;2022-08-21T05:22:48;20.65;;;10.50;;
64395;SDS011;50717;53.360;6.290;2022-08-21T05:25:14;19.25;;;9.30;;
64395;SDS011;50717;53.360;6.290;2022-08-21T05:27:39;17.80;;;10.52;;
64395;SDS011;50717;53.360;6.290;2022-08-21T05:32:32;24.65;;;9.82;;
64395;SDS011;50717;53.360;6.290;2022-08-21T05:34:58;17.42;;;11.27;;
64395;SDS011;50717;53.360;6.290;2022-08-21T05:37:24;18.23;;;10.27;;
64395;SDS011;50717;53.360;6.290;2022-08-21T05:39:50;19.50;;;10.40;;
64395;SDS011;50717;53.360;6.290;2022-08-21T05:42:16;21.65;;;10.45;;
64395;SDS011;50717;53.360;6.290;2022-08-21T05:44:42;23.60;;;11.25;;
64395;SDS011;50717;53.360;6.290;2022-08-21T05:47:08;15.73;;;9.77;;
64395;SDS011;50717;53.360;6.290;2022-08-21T05:49:35;20.25;;;10.80;;
64395;SDS011;50717;53.360;6.290;2022-08-21T05:54:27;21.93;;;10.53;;
64395;SDS011;50717;53.360;6.290;2022-08-21T05:59:19;21.42;;;11.10;;
64395;SDS011;50717;53.360;6.290;2022-08-21T06:04:10;19.10;;;10.32;;
64395;SDS011;50717;53.360;6.290;2022-08-21T06:06:36;23.95;;;10.90;;
64395;SDS011;50717;53.360;6.290;2022-08-21T06:09:02;18.95;;;11.27;;
64395;SDS011;50717;53.360;6.290;2022-08-21T06:11:29;21.25;;;10.95;;
64395;SDS011;50717;53.360;6.290;2022-08-21T06:13:56;25.92;;;10.82;;
64395;SDS011;50717;53.360;6.290;2022-08-21T06:16:22;21.23;;;11.65;;
64395;SDS011;50717;53.360;6.290;2022-08-21T06:18:48;20.95;;;11.05;;
64395;SDS011;50717;53.360;6.290;2022-08-21T06:23:40;20.17;;;10.32;;
64395;SDS011;50717;53.360;6.290;2022-08-21T06:26:06;23.40;;;10.13;;
64395;SDS011;50717;53.360;6.290;2022-08-21T06:28:33;18.83;;;10.00;;
64395;SDS011;50717;53.360;6.290;2022-08-21T06:30:59;20.95;;;9.68;;
64395;SDS011;50717;53.360;6.290;2022-08-21T06:33:25;24.08;;;10.52;;
64395;SDS011;50717;53.360;6.290;2022-08-21T06:35:51;13.48;;;9.45;;
64395;SDS011;50717;53.360;6.290;2022-08-21T06:38:17;19.50;;;9.27;;
64395;SDS011;50717;53.360;6.290;2022-08-21T06:43:10;17.58;;;8.93;;
64395;SDS011;50717;53.360;6.290;2022-08-21T06:45:37;22.10;;;9.45;;
64395;SDS011;50717;53.360;6.290;2022-08-21T06:50:29;22.92;;;8.85;;
64395;SDS011;50717;53.360;6.290;2022-08-21T06:52:59;20.52;;;8.45;;
64395;SDS011;50717;53.360;6.290;2022-08-21T06:55:26;20.13;;;8.55;;
64395;SDS011;50717;53.360;6.290;2022-08-21T06:57:52;15.20;;;8.00;;
64395;SDS011;50717;53.360;6.290;2022-08-21T07:02:43;25.13;;;8.60;;
64395;SDS011;50717;53.360;6.290;2022-08-21T07:07:35;16.05;;;7.68;;
64395;SDS011;50717;53.360;6.290;2022-08-21T07:12:26;21.45;;;8.80;;
64395;SDS011;50717;53.360;6.290;2022-08-21T07:17:18;13.75;;;7.72;;
64395;SDS011;50717;53.360;6.290;2022-08-21T07:22:09;16.08;;;7.18;;
64395;SDS011;50717;53.360;6.290;2022-08-21T07:27:00;15.52;;;6.20;;
64395;SDS011;50717;53.360;6.290;2022-08-21T07:31:52;16.65;;;6.03;;
64395;SDS011;50717;53.360;6.290;2022-08-21T07:34:17;17.60;;;6.70;;
64395;SDS011;50717;53.360;6.290;2022-08-21T07:36:44;18.13;;;6.20;;
64395;SDS011;50717;53.360;6.290;2022-08-21T07:39:10;15.68;;;5.75;;
64395;SDS011;50717;53.360;6.290;2022-08-21T07:41:35;16.80;;;5.90;;
64395;SDS011;50717;53.360;6.290;2022-08-21T07:44:02;19.80;;;5.97;;
64395;SDS011;50717;53.360;6.290;2022-08-21T07:46:28;13.35;;;4.50;;
64395;SDS011;50717;53.360;6.290;2022-08-21T07:48:54;19.48;;;5.93;;
64395;SDS011;50717;53.360;6.290;2022-08-21T07:51:20;13.32;;;5.45;;
64395;SDS011;50717;53.360;6.290;2022-08-21T07:53:49;14.07;;;5.60;;
64395;SDS011;50717;53.360;6.290;2022-08-21T07:56:17;13.77;;;5.78;;
64395;SDS011;50717;53.360;6.290;2022-08-21T07:58:44;14.30;;;4.93;;
64395;SDS011;50717;53.360;6.290;2022-08-21T08:01:09;12.05;;;5.35;;
64395;SDS011;50717;53.360;6.290;2022-08-21T08:03:35;13.90;;;5.05;;
64395;SDS011;50717;53.360;6.290;2022-08-21T08:06:01;15.20;;;5.18;;
64395;SDS011;50717;53.360;6.290;2022-08-21T08:08:29;17.45;;;5.63;;
64395;SDS011;50717;53.360;6.290;2022-08-21T08:10:56;17.02;;;5.18;;
64395;SDS011;50717;53.360;6.290;2022-08-21T08:13:23;9.98;;;4.72;;
64395;SDS011;50717;53.360;6.290;2022-08-21T08:15:49;13.85;;;4.85;;
64395;SDS011;50717;53.360;6.290;2022-08-21T08:18:15;14.38;;;4.78;;
64395;SDS011;50717;53.360;6.290;2022-08-21T08:20:40;17.88;;;5.47;;
64395;SDS011;50717;53.360;6.290;2022-08-21T08:23:07;13.02;;;5.25;;
64395;SDS011;50717;53.360;6.290;2022-08-21T08:25:35;17.08;;;5.18;;
64395;SDS011;50717;53.360;6.290;2022-08-21T08:28:01;15.20;;;5.03;;
64395;SDS011;50717;53.360;6.290;2022-08-21T08:30:27;12.82;;;4.97;;
64395;SDS011;50717;53.360;6.290;2022-08-21T08:32:53;16.13;;;4.70;;
64395;SDS011;50717;53.360;6.290;2022-08-21T08:35:18;15.73;;;5.15;;
64395;SDS011;50717;53.360;6.290;2022-08-21T08:37:44;12.55;;;5.93;;
64395;SDS011;50717;53.360;6.290;2022-08-21T08:40:14;15.35;;;5.45;;
64395;SDS011;50717;53.360;6.290;2022-08-21T08:43:05;16.30;;;5.03;;
64395;SDS011;50717;53.360;6.290;2022-08-21T08:45:32;15.85;;;5.43;;
64395;SDS011;50717;53.360;6.290;2022-08-21T08:48:03;18.38;;;5.60;;
64395;SDS011;50717;53.360;6.290;2022-08-21T08:53:05;21.38;;;5.53;;
64395;SDS011;50717;53.360;6.290;2022-08-21T08:55:36;16.67;;;4.70;;
64395;SDS011;50717;53.360;6.290;2022-08-21T08:58:05;15.52;;;4.55;;
64395;SDS011;50717;53.360;6.290;2022-08-21T09:00:31;17.08;;;5.40;;
64395;SDS011;50717;53.360;6.290;2022-08-21T09:02:59;15.60;;;4.82;;
64395;SDS011;50717;53.360;6.290;2022-08-21T09:05:36;13.75;;;4.32;;
64395;SDS011;50717;53.360;6.290;2022-08-21T09:08:15;13.77;;;4.32;;
64395;SDS011;50717;53.360;6.290;2022-08-21T09:10:49;14.23;;;4.40;;
64395;SDS011;50717;53.360;6.290;2022-08-21T09:21:58;8.82;;;3.03;;
64395;SDS011;50717;53.360;6.290;2022-08-21T09:24:35;12.07;;;3.70;;
64395;SDS011;50717;53.360;6.290;2022-08-21T09:27:27;8.77;;;3.72;;
64395;SDS011;50717;53.360;6.290;2022-08-21T09:29:54;9.55;;;4.03;;
64395;SDS011;50717;53.360;6.290;2022-08-21T09:32:24;9.27;;;3.47;;
64395;SDS011;50717;53.360;6.290;2022-08-21T09:40:38;11.30;;;3.55;;
64395;SDS011;50717;53.360;6.290;2022-08-21T09:45:43;13.95;;;3.22;;
64395;SDS011;50717;53.360;6.290;2022-08-21T09:50:36;13.13;;;3.30;;
64395;SDS011;50717;53.360;6.290;2022-08-21T09:53:02;10.50;;;2.88;;
64395;SDS011;50717;53.360;6.290;2022-08-21T09:55:39;10.82;;;3.20;;
64395;SDS011;50717;53.360;6.290;2022-08-21T09:58:33;9.10;;;2.88;;
64395;SDS011;50717;53.360;6.290;2022-08-21T10:01:01;10.18;;;2.90;;
64395;SDS011;50717;53.360;6.290;2022-08-21T10:03:28;10.05;;;2.65;;
64395;SDS011;50717;53.360;6.290;2022-08-21T10:06:02;7.55;;;2.65;;
64395;SDS011;50717;53.360;6.290;2022-08-21T10:08:34;11.27;;;2.60;;
64395;SDS011;50717;53.360;6.290;2022-08-21T10:11:02;13.10;;;2.80;;
64395;SDS011;50717;53.360;6.290;2022-08-21T10:14:01;9.35;;;2.70;;
64395;SDS011;50717;53.360;6.290;2022-08-21T10:16:44;12.02;;;3.00;;
64395;SDS011;50717;53.360;6.290;2022-08-21T10:22:18;15.25;;;3.75;;
64395;SDS011;50717;53.360;6.290;2022-08-21T10:27:30;12.85;;;2.70;;
64395;SDS011;50717;53.360;6.290;2022-08-21T10:30:07;8.52;;;2.10;;
64395;SDS011;50717;53.360;6.290;2022-08-21T10:32:41;8.75;;;2.88;;
64395;SDS011;50717;53.360;6.290;2022-08-21T10:35:36;6.95;;;2.58;;
64395;SDS011;50717;53.360;6.290;2022-08-21T10:48:47;9.48;;;2.50;;
64395;SDS011;50717;53.360;6.290;2022-08-21T10:54:07;9.95;;;2.60;;
64395;SDS011;50717;53.360;6.290;2022-08-21T10:56:45;9.35;;;2.40;;
64395;SDS011;50717;53.360;6.290;2022-08-21T10:59:20;9.00;;;2.55;;
64395;SDS011;50717;53.360;6.290;2022-08-21T11:07:47;7.60;;;2.22;;
64395;SDS011;50717;53.360;6.290;2022-08-21T11:10:23;7.22;;;1.73;;
64395;SDS011;50717;53.360;6.290;2022-08-21T11:13:03;5.10;;;1.50;;
64395;SDS011;50717;53.360;6.290;2022-08-21T11:15:37;3.17;;;1.45;;
64395;SDS011;50717;53.360;6.290;2022-08-21T11:18:15;5.03;;;1.55;;
64395;SDS011;50717;53.360;6.290;2022-08-21T11:21:05;5.35;;;1.70;;
64395;SDS011;50717;53.360;6.290;2022-08-21T11:26:41;4.88;;;1.60;;
64395;SDS011;50717;53.360;6.290;2022-08-21T11:29:21;6.50;;;2.15;;
64395;SDS011;50717;53.360;6.290;2022-08-21T11:34:51;7.35;;;1.80;;
64395;SDS011;50717;53.360;6.290;2022-08-21T11:45:39;4.13;;;1.55;;
64395;SDS011;50717;53.360;6.290;2022-08-21T11:50:59;8.35;;;1.92;;
64395;SDS011;50717;53.360;6.290;2022-08-21T11:53:31;6.78;;;1.65;;
64395;SDS011;50717;53.360;6.290;2022-08-21T11:56:08;5.85;;;2.08;;
64395;SDS011;50717;53.360;6.290;2022-08-21T11:59:00;4.38;;;1.35;;
64395;SDS011;50717;53.360;6.290;2022-08-21T12:01:33;7.13;;;1.40;;
64395;SDS011;50717;53.360;6.290;2022-08-21T12:06:52;6.82;;;1.50;;
64395;SDS011;50717;53.360;6.290;2022-08-21T12:12:04;6.25;;;1.80;;
64395;SDS011;50717;53.360;6.290;2022-08-21T12:14:39;5.38;;;1.60;;
64395;SDS011;50717;53.360;6.290;2022-08-21T12:17:23;7.63;;;1.98;;
64395;SDS011;50717;53.360;6.290;2022-08-21T12:20:15;7.82;;;2.10;;
64395;SDS011;50717;53.360;6.290;2022-08-21T12:22:49;3.78;;;1.55;;
64395;SDS011;50717;53.360;6.290;2022-08-21T12:25:19;7.93;;;2.22;;
64395;SDS011;50717;53.360;6.290;2022-08-21T12:27:50;7.15;;;2.20;;
64395;SDS011;50717;53.360;6.290;2022-08-21T12:30:20;6.78;;;1.90;;
64395;SDS011;50717;53.360;6.290;2022-08-21T12:32:59;6.20;;;1.52;;
64395;SDS011;50717;53.360;6.290;2022-08-21T12:35:31;7.75;;;2.10;;
64395;SDS011;50717;53.360;6.290;2022-08-21T12:38:22;6.85;;;1.98;;
64395;SDS011;50717;53.360;6.290;2022-08-21T12:40:55;6.13;;;1.63;;
64395;SDS011;50717;53.360;6.290;2022-08-21T12:43:31;6.20;;;1.75;;
64395;SDS011;50717;53.360;6.290;2022-08-21T12:45:58;6.13;;;2.08;;
64395;SDS011;50717;53.360;6.290;2022-08-21T12:51:14;5.78;;;1.83;;
64395;SDS011;50717;53.360;6.290;2022-08-21T12:56:17;4.45;;;1.88;;
64395;SDS011;50717;53.360;6.290;2022-08-21T12:58:54;5.32;;;1.83;;
64395;SDS011;50717;53.360;6.290;2022-08-21T13:01:27;6.93;;;1.60;;
64395;SDS011;50717;53.360;6.290;2022-08-21T13:04:00;5.35;;;1.60;;
64395;SDS011;50717;53.360;6.290;2022-08-21T13:06:29;3.25;;;1.50;;
64395;SDS011;50717;53.360;6.290;2022-08-21T13:09:04;7.53;;;1.83;;
64395;SDS011;50717;53.360;6.290;2022-08-21T13:11:32;4.75;;;1.52;;
64395;SDS011;50717;53.360;6.290;2022-08-21T13:13:58;8.63;;;2.17;;
64395;SDS011;50717;53.360;6.290;2022-08-21T13:16:27;4.40;;;1.48;;
64395;SDS011;50717;53.360;6.290;2022-08-21T13:21:19;4.22;;;1.50;;
64395;SDS011;50717;53.360;6.290;2022-08-21T13:23:46;4.15;;;1.70;;
64395;SDS011;50717;53.360;6.290;2022-08-21T13:26:16;6.25;;;1.83;;
64395;SDS011;50717;53.360;6.290;2022-08-21T13:28:45;4.63;;;1.67;;
64395;SDS011;50717;53.360;6.290;2022-08-21T13:31:13;5.30;;;1.52;;
64395;SDS011;50717;53.360;6.290;2022-08-21T13:33:46;7.50;;;1.60;;
64395;SDS011;50717;53.360;6.290;2022-08-21T13:36:16;5.85;;;1.65;;
64395;SDS011;50717;53.360;6.290;2022-08-21T13:39:05;6.10;;;1.90;;
64395;SDS011;50717;53.360;6.290;2022-08-21T13:41:34;6.53;;;1.55;;
64395;SDS011;50717;53.360;6.290;2022-08-21T13:46:29;5.75;;;1.88;;
64395;SDS011;50717;53.360;6.290;2022-08-21T13:48:58;8.75;;;1.90;;
64395;SDS011;50717;53.360;6.290;2022-08-21T13:51:25;4.90;;;1.70;;
64395;SDS011;50717;53.360;6.290;2022-08-21T13:53:51;4.18;;;1.33;;
64395;SDS011;50717;53.360;6.290;2022-08-21T13:58:50;5.25;;;1.50;;
64395;SDS011;50717;53.360;6.290;2022-08-21T14:01:37;9.57;;;1.85;;
64395;SDS011;50717;53.360;6.290;2022-08-21T14:04:18;6.87;;;1.83;;
64395;SDS011;50717;53.360;6.290;2022-08-21T14:06:48;5.38;;;1.50;;
64395;SDS011;50717;53.360;6.290;2022-08-21T14:09:31;5.35;;;2.15;;
64395;SDS011;50717;53.360;6.290;2022-08-21T14:12:00;7.13;;;1.90;;
64395;SDS011;50717;53.360;6.290;2022-08-21T14:14:32;9.52;;;1.90;;
64395;SDS011;50717;53.360;6.290;2022-08-21T14:17:04;7.88;;;1.73;;
64395;SDS011;50717;53.360;6.290;2022-08-21T14:19:37;10.93;;;2.30;;
64395;SDS011;50717;53.360;6.290;2022-08-21T14:24:49;6.25;;;1.77;;
64395;SDS011;50717;53.360;6.290;2022-08-21T14:27:23;5.95;;;1.77;;
64395;SDS011;50717;53.360;6.290;2022-08-21T14:29:49;8.18;;;2.03;;
64395;SDS011;50717;53.360;6.290;2022-08-21T14:32:27;10.55;;;2.55;;
64395;SDS011;50717;53.360;6.290;2022-08-21T14:34:55;14.63;;;2.47;;
64395;SDS011;50717;53.360;6.290;2022-08-21T14:37:22;8.68;;;2.22;;
64395;SDS011;50717;53.360;6.290;2022-08-21T14:39:49;6.63;;;2.10;;
64395;SDS011;50717;53.360;6.290;2022-08-21T14:42:14;6.63;;;2.00;;
64395;SDS011;50717;53.360;6.290;2022-08-21T14:44:41;8.32;;;2.13;;
64395;SDS011;50717;53.360;6.290;2022-08-21T14:47:07;7.20;;;2.03;;
64395;SDS011;50717;53.360;6.290;2022-08-21T14:49:34;9.55;;;2.10;;
64395;SDS011;50717;53.360;6.290;2022-08-21T14:52:00;13.77;;;2.50;;
64395;SDS011;50717;53.360;6.290;2022-08-21T14:54:26;8.38;;;2.15;;
64395;SDS011;50717;53.360;6.290;2022-08-21T14:56:53;7.38;;;1.80;;
64395;SDS011;50717;53.360;6.290;2022-08-21T14:59:20;6.38;;;1.77;;
64395;SDS011;50717;53.360;6.290;2022-08-21T15:01:46;6.78;;;1.80;;
64395;SDS011;50717;53.360;6.290;2022-08-21T15:04:12;9.07;;;2.33;;
64395;SDS011;50717;53.360;6.290;2022-08-21T15:06:38;7.85;;;2.10;;
64395;SDS011;50717;53.360;6.290;2022-08-21T15:09:04;6.75;;;1.90;;
64395;SDS011;50717;53.360;6.290;2022-08-21T15:11:31;9.30;;;1.95;;
64395;SDS011;50717;53.360;6.290;2022-08-21T15:14:00;5.20;;;1.67;;
64395;SDS011;50717;53.360;6.290;2022-08-21T15:16:27;6.65;;;2.08;;
64395;SDS011;50717;53.360;6.290;2022-08-21T15:18:55;6.85;;;1.80;;
64395;SDS011;50717;53.360;6.290;2022-08-21T15:21:21;11.10;;;2.00;;
64395;SDS011;50717;53.360;6.290;2022-08-21T15:23:47;10.43;;;1.90;;
64395;SDS011;50717;53.360;6.290;2022-08-21T15:26:12;7.13;;;1.85;;
64395;SDS011;50717;53.360;6.290;2022-08-21T15:28:39;5.82;;;1.85;;
64395;SDS011;50717;53.360;6.290;2022-08-21T15:31:05;6.60;;;1.98;;
64395;SDS011;50717;53.360;6.290;2022-08-21T15:33:32;9.18;;;2.47;;
64395;SDS011;50717;53.360;6.290;2022-08-21T15:35:58;8.88;;;2.38;;
64395;SDS011;50717;53.360;6.290;2022-08-21T15:38:24;10.93;;;1.98;;
64395;SDS011;50717;53.360;6.290;2022-08-21T15:40:50;5.82;;;1.70;;
64395;SDS011;50717;53.360;6.290;2022-08-21T15:43:20;5.28;;;1.50;;
64395;SDS011;50717;53.360;6.290;2022-08-21T15:45:54;8.00;;;2.38;;
64395;SDS011;50717;53.360;6.290;2022-08-21T15:48:20;7.10;;;1.70;;
64395;SDS011;50717;53.360;6.290;2022-08-21T15:50:46;9.43;;;2.10;;
64395;SDS011;50717;53.360;6.290;2022-08-21T15:53:12;7.10;;;2.00;;
64395;SDS011;50717;53.360;6.290;2022-08-21T15:55:40;10.57;;;2.58;;
64395;SDS011;50717;53.360;6.290;2022-08-21T15:58:07;6.35;;;2.40;;
64395;SDS011;50717;53.360;6.290;2022-08-21T16:00:40;6.35;;;1.98;;
64395;SDS011;50717;53.360;6.290;2022-08-21T16:03:09;8.55;;;2.03;;
64395;SDS011;50717;53.360;6.290;2022-08-21T16:05:39;5.40;;;1.80;;
64395;SDS011;50717;53.360;6.290;2022-08-21T16:08:05;6.65;;;1.90;;
64395;SDS011;50717;53.360;6.290;2022-08-21T16:10:30;9.65;;;2.10;;
64395;SDS011;50717;53.360;6.290;2022-08-21T16:12:57;9.52;;;2.65;;
64395;SDS011;50717;53.360;6.290;2022-08-21T16:15:26;5.80;;;2.10;;
64395;SDS011;50717;53.360;6.290;2022-08-21T16:17:52;8.23;;;2.15;;
64395;SDS011;50717;53.360;6.290;2022-08-21T16:20:20;8.55;;;2.30;;
64395;SDS011;50717;53.360;6.290;2022-08-21T16:22:49;5.88;;;2.15;;
64395;SDS011;50717;53.360;6.290;2022-08-21T16:25:16;8.55;;;2.60;;
64395;SDS011;50717;53.360;6.290;2022-08-21T16:27:43;14.23;;;3.25;;
64395;SDS011;50717;53.360;6.290;2022-08-21T16:30:12;8.23;;;2.10;;
64395;SDS011;50717;53.360;6.290;2022-08-21T16:32:40;10.85;;;2.50;;
64395;SDS011;50717;53.360;6.290;2022-08-21T16:35:06;6.20;;;2.00;;
64395;SDS011;50717;53.360;6.290;2022-08-21T16:37:35;10.00;;;2.72;;
64395;SDS011;50717;53.360;6.290;2022-08-21T16:40:01;8.60;;;2.15;;
64395;SDS011;50717;53.360;6.290;2022-08-21T16:42:28;9.13;;;3.05;;
64395;SDS011;50717;53.360;6.290;2022-08-21T16:44:53;7.22;;;2.20;;
64395;SDS011;50717;53.360;6.290;2022-08-21T16:47:20;8.32;;;2.30;;
64395;SDS011;50717;53.360;6.290;2022-08-21T16:49:46;10.55;;;1.95;;
64395;SDS011;50717;53.360;6.290;2022-08-21T16:52:12;9.13;;;2.47;;
64395;SDS011;50717;53.360;6.290;2022-08-21T16:54:38;7.43;;;2.40;;
64395;SDS011;50717;53.360;6.290;2022-08-21T16:57:04;9.00;;;3.13;;
64395;SDS011;50717;53.360;6.290;2022-08-21T16:59:30;9.07;;;2.40;;
64395;SDS011;50717;53.360;6.290;2022-08-21T17:01:56;8.80;;;2.72;;
64395;SDS011;50717;53.360;6.290;2022-08-21T17:04:22;6.35;;;2.13;;
64395;SDS011;50717;53.360;6.290;2022-08-21T17:06:49;14.77;;;3.25;;
64395;SDS011;50717;53.360;6.290;2022-08-21T17:09:17;7.75;;;2.60;;
64395;SDS011;50717;53.360;6.290;2022-08-21T17:11:44;8.05;;;2.83;;
64395;SDS011;50717;53.360;6.290;2022-08-21T17:14:17;8.18;;;2.80;;
64395;SDS011;50717;53.360;6.290;2022-08-21T17:16:46;7.35;;;2.38;;
64395;SDS011;50717;53.360;6.290;2022-08-21T17:19:14;7.85;;;2.55;;
64395;SDS011;50717;53.360;6.290;2022-08-21T17:21:41;10.00;;;2.65;;
64395;SDS011;50717;53.360;6.290;2022-08-21T17:24:07;14.18;;;3.25;;
64395;SDS011;50717;53.360;6.290;2022-08-21T17:26:33;7.45;;;2.50;;
64395;SDS011;50717;53.360;6.290;2022-08-21T17:28:59;8.73;;;2.53;;
64395;SDS011;50717;53.360;6.290;2022-08-21T17:31:25;8.45;;;2.53;;
64395;SDS011;50717;53.360;6.290;2022-08-21T17:33:51;8.13;;;2.25;;
64395;SDS011;50717;53.360;6.290;2022-08-21T17:36:23;9.13;;;2.70;;